Pineglen — VOGX — position and weather

sailwx.info

Track history (hours):
 
Tides and Currents Weather Stations Pressure Air Temp Water Temp Dewpoint Dewpoint Depression Visibility Wind Speed Wind Dir Waves Ship Positions

Pineglen

Last reported at 2016-Sep-25 15:34 UTC. Time now 2016-Oct-01 03:19 UTC.
Position N 43°08' W 079°12'.

Length 225 m; draft 8 m.

Type: Cargo ship. MMSI: 316001839.

Date/timePositionNaut miles runAvg speedWind from/ knotsBaromVisibWave heightAir tempDewpointWater temp
2016-Sep-25 15:34N 43°08' W 079°12'5 1.2
2016-Sep-25 11:19N 43°13' W 079°13'1 0.7
2016-Sep-25 10:33N 43°13' W 079°13'13210.7
2016-Sep-24 22:15N 44°05' W 076°25'7 9.5
2016-Sep-24 21:34N 44°10' W 076°19'124 6.8
2016-Sep-24 03:25N 45°20' W 073°55'3 2.7
2016-Sep-24 02:29N 45°21' W 073°52'6 6.6
2016-Sep-24 01:33N 45°24' W 073°44'7 6.6
2016-Sep-24 00:32N 45°24' W 073°35'8 1.6
2016-Sep-23 19:33N 45°32' W 073°32'0 0.0
2016-Sep-23 17:27N 45°32' W 073°32'0 0.0
2016-Sep-23 16:33N 45°32' W 073°32'0 0.0
2016-Sep-23 15:30N 45°32' W 073°32'0 0.0
2016-Sep-23 13:33N 45°32' W 073°32'0 0.0
2016-Sep-23 09:27N 45°32' W 073°32'1 0.4
2016-Sep-23 06:29N 45°34' W 073°31'0 0.0
2016-Sep-23 04:32N 45°34' W 073°31'0 0.0
2016-Sep-23 03:32N 45°34' W 073°31'0 0.0
2016-Sep-23 02:32N 45°34' W 073°31'0 0.0
2016-Sep-22 12:32N 45°34' W 073°31'0 0.0
2016-Sep-22 04:26N 45°34' W 073°31'0 0.0
2016-Sep-22 03:23N 45°34' W 073°31'0 0.0
2016-Sep-22 00:32N 45°34' W 073°31'0 0.0
2016-Sep-21 23:23N 45°34' W 073°31'0 0.0
2016-Sep-21 22:32N 45°34' W 073°31'0 0.0
2016-Sep-21 19:32N 45°34' W 073°31'0 0.0
2016-Sep-21 09:32N 45°34' W 073°31'0 0.0
2016-Sep-21 08:32N 45°34' W 073°31'1 0.2
2016-Sep-21 05:33N 45°33' W 073°31'4 2.2
2016-Sep-21 03:33N 45°29' W 073°31'4 3.8
2016-Sep-21 02:33N 45°25' W 073°31'278 7.7
2016-Sep-19 14:33N 43°14' W 079°13'0 0.0
2016-Sep-19 13:33N 43°14' W 079°13'0 0.0
2016-Sep-19 12:33N 43°14' W 079°13'0 0.0
2016-Sep-19 11:33N 43°14' W 079°13'1 0.5
2016-Sep-19 09:33N 43°13' W 079°13'  
Track history (hours):
 
Tides and Currents Weather Stations Pressure Air Temp Water Temp Dewpoint Dewpoint Depression Visibility Wind Speed Wind Dir Waves Ship Positions

Pineglen

Last reported at 2016-Sep-25 15:34 UTC. Time now 2016-Oct-01 03:19 UTC.
Position N 43°08' W 079°12'.

Length 225 m; draft 8 m.

Type: Cargo ship. MMSI: 316001839.

Date/timePositionNaut miles runAvg speedWind from/ knotsBaromVisibWave heightAir tempDewpointWater temp
2016-Sep-25 15:34N 43°08' W 079°12'5 1.2
2016-Sep-25 11:19N 43°13' W 079°13'1 0.7
2016-Sep-25 10:33N 43°13' W 079°13'13210.7
2016-Sep-24 22:15N 44°05' W 076°25'7 9.5
2016-Sep-24 21:34N 44°10' W 076°19'124 6.8
2016-Sep-24 03:25N 45°20' W 073°55'3 2.7
2016-Sep-24 02:29N 45°21' W 073°52'6 6.6
2016-Sep-24 01:33N 45°24' W 073°44'7 6.6
2016-Sep-24 00:32N 45°24' W 073°35'8 1.6
2016-Sep-23 19:33N 45°32' W 073°32'0 0.0
2016-Sep-23 17:27N 45°32' W 073°32'0 0.0
2016-Sep-23 16:33N 45°32' W 073°32'0 0.0
2016-Sep-23 15:30N 45°32' W 073°32'0 0.0
2016-Sep-23 13:33N 45°32' W 073°32'0 0.0
2016-Sep-23 09:27N 45°32' W 073°32'1 0.4
2016-Sep-23 06:29N 45°34' W 073°31'0 0.0
2016-Sep-23 04:32N 45°34' W 073°31'0 0.0
2016-Sep-23 03:32N 45°34' W 073°31'0 0.0
2016-Sep-23 02:32N 45°34' W 073°31'0 0.0
2016-Sep-22 12:32N 45°34' W 073°31'0 0.0
2016-Sep-22 04:26N 45°34' W 073°31'0 0.0
2016-Sep-22 03:23N 45°34' W 073°31'0 0.0
2016-Sep-22 00:32N 45°34' W 073°31'0 0.0
2016-Sep-21 23:23N 45°34' W 073°31'0 0.0
2016-Sep-21 22:32N 45°34' W 073°31'0 0.0
2016-Sep-21 19:32N 45°34' W 073°31'0 0.0
2016-Sep-21 09:32N 45°34' W 073°31'0 0.0
2016-Sep-21 08:32N 45°34' W 073°31'1 0.2
2016-Sep-21 05:33N 45°33' W 073°31'4 2.2
2016-Sep-21 03:33N 45°29' W 073°31'4 3.8
2016-Sep-21 02:33N 45°25' W 073°31'278 7.7
2016-Sep-19 14:33N 43°14' W 079°13'0 0.0
2016-Sep-19 13:33N 43°14' W 079°13'0 0.0
2016-Sep-19 12:33N 43°14' W 079°13'0 0.0
2016-Sep-19 11:33N 43°14' W 079°13'1 0.5
2016-Sep-19 09:33N 43°13' W 079°13'  

Dump ship's entire track history